sensor_id;sensor_type;location;lat;lon;timestamp;P1;durP1;ratioP1;P2;durP2;ratioP2
61915;SDS011;47868;51.326;6.550;2022-09-27T00:01:59;6.28;;;2.75;;
61915;SDS011;47868;51.326;6.550;2022-09-27T00:04:25;11.27;;;2.92;;
61915;SDS011;47868;51.326;6.550;2022-09-27T00:06:51;7.93;;;3.10;;
61915;SDS011;47868;51.326;6.550;2022-09-27T00:09:17;12.57;;;3.85;;
61915;SDS011;47868;51.326;6.550;2022-09-27T00:11:43;6.85;;;3.53;;
61915;SDS011;47868;51.326;6.550;2022-09-27T00:14:13;5.82;;;3.60;;
61915;SDS011;47868;51.326;6.550;2022-09-27T00:16:40;5.25;;;3.70;;
61915;SDS011;47868;51.326;6.550;2022-09-27T00:19:11;7.00;;;3.90;;
61915;SDS011;47868;51.326;6.550;2022-09-27T00:21:39;6.85;;;3.25;;
61915;SDS011;47868;51.326;6.550;2022-09-27T00:24:05;7.30;;;3.45;;
61915;SDS011;47868;51.326;6.550;2022-09-27T00:26:31;9.80;;;4.22;;
61915;SDS011;47868;51.326;6.550;2022-09-27T00:28:57;5.53;;;3.70;;
61915;SDS011;47868;51.326;6.550;2022-09-27T00:31:24;11.60;;;4.30;;
61915;SDS011;47868;51.326;6.550;2022-09-27T00:33:53;8.35;;;4.30;;
61915;SDS011;47868;51.326;6.550;2022-09-27T00:36:21;11.13;;;4.25;;
61915;SDS011;47868;51.326;6.550;2022-09-27T00:38:48;10.55;;;3.78;;
61915;SDS011;47868;51.326;6.550;2022-09-27T00:41:19;11.98;;;3.45;;
61915;SDS011;47868;51.326;6.550;2022-09-27T00:43:48;6.25;;;3.80;;
61915;SDS011;47868;51.326;6.550;2022-09-27T00:46:17;7.28;;;3.42;;
61915;SDS011;47868;51.326;6.550;2022-09-27T00:48:57;8.10;;;2.80;;
61915;SDS011;47868;51.326;6.550;2022-09-27T00:51:30;5.55;;;2.90;;
61915;SDS011;47868;51.326;6.550;2022-09-27T00:53:58;7.38;;;3.28;;
61915;SDS011;47868;51.326;6.550;2022-09-27T00:56:26;10.40;;;3.28;;
61915;SDS011;47868;51.326;6.550;2022-09-27T00:59:02;8.10;;;3.30;;
61915;SDS011;47868;51.326;6.550;2022-09-27T01:01:49;10.85;;;4.05;;
61915;SDS011;47868;51.326;6.550;2022-09-27T01:04:15;7.97;;;3.30;;
61915;SDS011;47868;51.326;6.550;2022-09-27T01:06:48;4.88;;;3.05;;
61915;SDS011;47868;51.326;6.550;2022-09-27T01:09:14;6.30;;;3.40;;
61915;SDS011;47868;51.326;6.550;2022-09-27T01:11:41;5.63;;;3.25;;
61915;SDS011;47868;51.326;6.550;2022-09-27T01:27:08;8.40;;;3.55;;
61915;SDS011;47868;51.326;6.550;2022-09-27T01:40:34;7.10;;;4.40;;
61915;SDS011;47868;51.326;6.550;2022-09-27T01:43:22;6.63;;;3.75;;
61915;SDS011;47868;51.326;6.550;2022-09-27T01:46:00;10.05;;;5.03;;
61915;SDS011;47868;51.326;6.550;2022-09-27T01:48:36;11.80;;;4.55;;
61915;SDS011;47868;51.326;6.550;2022-09-27T01:53:56;11.95;;;5.03;;
61915;SDS011;47868;51.326;6.550;2022-09-27T01:56:30;8.63;;;4.63;;
61915;SDS011;47868;51.326;6.550;2022-09-27T01:59:04;7.38;;;4.55;;
61915;SDS011;47868;51.326;6.550;2022-09-27T02:01:37;9.75;;;4.63;;
61915;SDS011;47868;51.326;6.550;2022-09-27T02:04:06;7.40;;;4.20;;
61915;SDS011;47868;51.326;6.550;2022-09-27T02:06:37;7.50;;;4.38;;
61915;SDS011;47868;51.326;6.550;2022-09-27T02:09:11;8.32;;;3.85;;
61915;SDS011;47868;51.326;6.550;2022-09-27T02:11:41;7.72;;;4.45;;
61915;SDS011;47868;51.326;6.550;2022-09-27T02:14:33;8.75;;;3.85;;
61915;SDS011;47868;51.326;6.550;2022-09-27T02:17:21;7.45;;;4.30;;
61915;SDS011;47868;51.326;6.550;2022-09-27T02:20:07;9.38;;;4.68;;
61915;SDS011;47868;51.326;6.550;2022-09-27T02:23:05;8.05;;;4.22;;
61915;SDS011;47868;51.326;6.550;2022-09-27T02:28:47;6.97;;;4.20;;
61915;SDS011;47868;51.326;6.550;2022-09-27T02:31:37;4.22;;;3.83;;
61915;SDS011;47868;51.326;6.550;2022-09-27T02:34:04;6.45;;;4.10;;
61915;SDS011;47868;51.326;6.550;2022-09-27T02:36:35;5.78;;;3.60;;
61915;SDS011;47868;51.326;6.550;2022-09-27T02:39:02;7.15;;;4.15;;
61915;SDS011;47868;51.326;6.550;2022-09-27T02:41:28;7.07;;;3.38;;
61915;SDS011;47868;51.326;6.550;2022-09-27T02:43:58;5.72;;;3.80;;
61915;SDS011;47868;51.326;6.550;2022-09-27T02:55:21;3.33;;;2.50;;
61915;SDS011;47868;51.326;6.550;2022-09-27T03:00:35;3.50;;;2.63;;
61915;SDS011;47868;51.326;6.550;2022-09-27T03:06:15;6.18;;;2.75;;
61915;SDS011;47868;51.326;6.550;2022-09-27T03:08:43;5.15;;;2.47;;
61915;SDS011;47868;51.326;6.550;2022-09-27T03:11:10;4.63;;;2.33;;
61915;SDS011;47868;51.326;6.550;2022-09-27T03:13:36;3.35;;;2.10;;
61915;SDS011;47868;51.326;6.550;2022-09-27T03:16:03;3.53;;;2.33;;
61915;SDS011;47868;51.326;6.550;2022-09-27T03:18:31;3.78;;;2.30;;
61915;SDS011;47868;51.326;6.550;2022-09-27T03:20:57;4.95;;;2.33;;
61915;SDS011;47868;51.326;6.550;2022-09-27T03:23:22;3.28;;;1.83;;
61915;SDS011;47868;51.326;6.550;2022-09-27T03:25:48;7.65;;;2.20;;
61915;SDS011;47868;51.326;6.550;2022-09-27T03:28:15;5.22;;;1.83;;
61915;SDS011;47868;51.326;6.550;2022-09-27T03:30:41;1.92;;;1.50;;
61915;SDS011;47868;51.326;6.550;2022-09-27T03:33:08;3.83;;;1.98;;
61915;SDS011;47868;51.326;6.550;2022-09-27T03:35:34;5.20;;;1.85;;
61915;SDS011;47868;51.326;6.550;2022-09-27T03:37:59;4.97;;;2.10;;
61915;SDS011;47868;51.326;6.550;2022-09-27T03:40:25;5.00;;;1.83;;
61915;SDS011;47868;51.326;6.550;2022-09-27T03:42:51;3.17;;;2.33;;
61915;SDS011;47868;51.326;6.550;2022-09-27T03:45:17;6.32;;;2.63;;
61915;SDS011;47868;51.326;6.550;2022-09-27T03:47:42;6.13;;;2.95;;
61915;SDS011;47868;51.326;6.550;2022-09-27T03:50:08;4.72;;;2.30;;
61915;SDS011;47868;51.326;6.550;2022-09-27T03:52:35;4.20;;;2.17;;
61915;SDS011;47868;51.326;6.550;2022-09-27T03:55:01;3.25;;;2.22;;
61915;SDS011;47868;51.326;6.550;2022-09-27T03:57:27;4.28;;;2.10;;
61915;SDS011;47868;51.326;6.550;2022-09-27T03:59:54;5.75;;;2.28;;
61915;SDS011;47868;51.326;6.550;2022-09-27T04:02:23;2.78;;;1.98;;
61915;SDS011;47868;51.326;6.550;2022-09-27T04:04:49;4.57;;;2.30;;
61915;SDS011;47868;51.326;6.550;2022-09-27T04:07:15;4.38;;;2.00;;
61915;SDS011;47868;51.326;6.550;2022-09-27T04:09:41;8.05;;;2.72;;
61915;SDS011;47868;51.326;6.550;2022-09-27T04:12:08;7.30;;;2.17;;
61915;SDS011;47868;51.326;6.550;2022-09-27T04:14:34;3.92;;;1.80;;
61915;SDS011;47868;51.326;6.550;2022-09-27T04:17:00;5.95;;;2.38;;
61915;SDS011;47868;51.326;6.550;2022-09-27T04:19:26;3.45;;;1.90;;
61915;SDS011;47868;51.326;6.550;2022-09-27T04:21:51;3.53;;;1.50;;
61915;SDS011;47868;51.326;6.550;2022-09-27T04:24:17;6.97;;;1.80;;
61915;SDS011;47868;51.326;6.550;2022-09-27T04:26:43;5.28;;;1.92;;
61915;SDS011;47868;51.326;6.550;2022-09-27T04:29:09;4.55;;;1.73;;
61915;SDS011;47868;51.326;6.550;2022-09-27T04:31:35;3.03;;;1.48;;
61915;SDS011;47868;51.326;6.550;2022-09-27T04:34:02;4.00;;;1.60;;
61915;SDS011;47868;51.326;6.550;2022-09-27T04:36:31;3.85;;;1.55;;
61915;SDS011;47868;51.326;6.550;2022-09-27T04:38:59;2.80;;;1.50;;
61915;SDS011;47868;51.326;6.550;2022-09-27T04:41:26;4.97;;;1.55;;
61915;SDS011;47868;51.326;6.550;2022-09-27T04:43:56;4.65;;;1.67;;
61915;SDS011;47868;51.326;6.550;2022-09-27T04:46:24;3.78;;;2.13;;
61915;SDS011;47868;51.326;6.550;2022-09-27T04:48:50;5.43;;;1.83;;
61915;SDS011;47868;51.326;6.550;2022-09-27T04:51:16;3.17;;;1.92;;
61915;SDS011;47868;51.326;6.550;2022-09-27T04:53:42;3.40;;;1.40;;
61915;SDS011;47868;51.326;6.550;2022-09-27T04:56:09;4.20;;;1.70;;
61915;SDS011;47868;51.326;6.550;2022-09-27T04:58:35;2.70;;;1.60;;
61915;SDS011;47868;51.326;6.550;2022-09-27T05:01:01;3.50;;;1.65;;
61915;SDS011;47868;51.326;6.550;2022-09-27T05:03:28;5.00;;;1.42;;
61915;SDS011;47868;51.326;6.550;2022-09-27T05:05:54;5.93;;;1.95;;
61915;SDS011;47868;51.326;6.550;2022-09-27T05:08:20;5.20;;;1.58;;
61915;SDS011;47868;51.326;6.550;2022-09-27T05:10:46;2.72;;;1.42;;
61915;SDS011;47868;51.326;6.550;2022-09-27T05:13:12;4.93;;;1.58;;
61915;SDS011;47868;51.326;6.550;2022-09-27T05:15:39;2.33;;;1.65;;
61915;SDS011;47868;51.326;6.550;2022-09-27T05:18:06;4.60;;;1.48;;
61915;SDS011;47868;51.326;6.550;2022-09-27T05:20:34;8.20;;;1.80;;
61915;SDS011;47868;51.326;6.550;2022-09-27T05:23:00;4.40;;;1.60;;
61915;SDS011;47868;51.326;6.550;2022-09-27T05:25:27;4.50;;;1.63;;
61915;SDS011;47868;51.326;6.550;2022-09-27T05:27:53;3.63;;;1.60;;
61915;SDS011;47868;51.326;6.550;2022-09-27T05:30:18;6.97;;;2.03;;
61915;SDS011;47868;51.326;6.550;2022-09-27T05:32:45;4.05;;;1.65;;
61915;SDS011;47868;51.326;6.550;2022-09-27T05:35:14;3.10;;;1.40;;
61915;SDS011;47868;51.326;6.550;2022-09-27T05:37:43;2.95;;;1.40;;
61915;SDS011;47868;51.326;6.550;2022-09-27T05:40:15;3.55;;;1.65;;
61915;SDS011;47868;51.326;6.550;2022-09-27T05:42:41;3.25;;;1.50;;
61915;SDS011;47868;51.326;6.550;2022-09-27T05:45:07;4.68;;;1.80;;
61915;SDS011;47868;51.326;6.550;2022-09-27T05:47:33;5.00;;;1.90;;
61915;SDS011;47868;51.326;6.550;2022-09-27T05:49:59;4.47;;;1.50;;
61915;SDS011;47868;51.326;6.550;2022-09-27T05:52:24;4.22;;;2.00;;
61915;SDS011;47868;51.326;6.550;2022-09-27T05:54:50;4.32;;;1.80;;
61915;SDS011;47868;51.326;6.550;2022-09-27T05:57:16;4.32;;;1.88;;
61915;SDS011;47868;51.326;6.550;2022-09-27T05:59:42;6.65;;;1.80;;
61915;SDS011;47868;51.326;6.550;2022-09-27T06:02:09;9.27;;;1.80;;
61915;SDS011;47868;51.326;6.550;2022-09-27T06:04:35;2.55;;;1.40;;
61915;SDS011;47868;51.326;6.550;2022-09-27T06:07:01;5.07;;;1.70;;
61915;SDS011;47868;51.326;6.550;2022-09-27T06:09:27;3.13;;;1.48;;
61915;SDS011;47868;51.326;6.550;2022-09-27T06:11:53;4.10;;;1.40;;
61915;SDS011;47868;51.326;6.550;2022-09-27T06:14:18;4.60;;;1.70;;
61915;SDS011;47868;51.326;6.550;2022-09-27T06:16:44;3.70;;;1.58;;
61915;SDS011;47868;51.326;6.550;2022-09-27T06:19:10;3.30;;;1.60;;
61915;SDS011;47868;51.326;6.550;2022-09-27T06:21:36;4.47;;;1.70;;
61915;SDS011;47868;51.326;6.550;2022-09-27T06:24:02;2.13;;;1.45;;
61915;SDS011;47868;51.326;6.550;2022-09-27T06:26:28;9.02;;;1.80;;
61915;SDS011;47868;51.326;6.550;2022-09-27T06:28:54;2.65;;;1.27;;
61915;SDS011;47868;51.326;6.550;2022-09-27T06:31:20;4.30;;;1.73;;
61915;SDS011;47868;51.326;6.550;2022-09-27T06:33:47;4.68;;;1.70;;
61915;SDS011;47868;51.326;6.550;2022-09-27T06:36:13;2.85;;;1.35;;
61915;SDS011;47868;51.326;6.550;2022-09-27T06:38:39;7.10;;;1.70;;
61915;SDS011;47868;51.326;6.550;2022-09-27T06:41:05;3.42;;;1.63;;
61915;SDS011;47868;51.326;6.550;2022-09-27T06:43:31;3.22;;;1.33;;
61915;SDS011;47868;51.326;6.550;2022-09-27T06:46:01;3.70;;;1.65;;
61915;SDS011;47868;51.326;6.550;2022-09-27T06:48:29;4.55;;;1.95;;
61915;SDS011;47868;51.326;6.550;2022-09-27T06:50:56;3.08;;;1.50;;
61915;SDS011;47868;51.326;6.550;2022-09-27T06:53:23;7.25;;;1.95;;
61915;SDS011;47868;51.326;6.550;2022-09-27T06:55:49;2.78;;;1.77;;
61915;SDS011;47868;51.326;6.550;2022-09-27T06:58:17;3.88;;;1.30;;
61915;SDS011;47868;51.326;6.550;2022-09-27T07:01:01;4.75;;;1.30;;
61915;SDS011;47868;51.326;6.550;2022-09-27T07:03:27;4.95;;;1.42;;
61915;SDS011;47868;51.326;6.550;2022-09-27T07:06:00;1.88;;;1.67;;
61915;SDS011;47868;51.326;6.550;2022-09-27T07:08:27;2.90;;;1.33;;
61915;SDS011;47868;51.326;6.550;2022-09-27T07:11:03;5.97;;;1.88;;
61915;SDS011;47868;51.326;6.550;2022-09-27T07:13:30;3.88;;;1.30;;
61915;SDS011;47868;51.326;6.550;2022-09-27T07:15:58;4.03;;;1.60;;
61915;SDS011;47868;51.326;6.550;2022-09-27T07:18:24;2.80;;;1.50;;
61915;SDS011;47868;51.326;6.550;2022-09-27T07:20:50;4.78;;;1.33;;
61915;SDS011;47868;51.326;6.550;2022-09-27T07:23:16;4.00;;;1.67;;
61915;SDS011;47868;51.326;6.550;2022-09-27T07:25:41;2.60;;;1.42;;
61915;SDS011;47868;51.326;6.550;2022-09-27T07:28:09;2.08;;;1.30;;
61915;SDS011;47868;51.326;6.550;2022-09-27T07:30:38;3.60;;;1.33;;
61915;SDS011;47868;51.326;6.550;2022-09-27T07:33:04;4.75;;;1.50;;
61915;SDS011;47868;51.326;6.550;2022-09-27T07:35:31;2.58;;;1.40;;
61915;SDS011;47868;51.326;6.550;2022-09-27T07:37:57;4.63;;;1.70;;
61915;SDS011;47868;51.326;6.550;2022-09-27T07:40:23;3.15;;;1.10;;
61915;SDS011;47868;51.326;6.550;2022-09-27T07:42:53;2.55;;;1.35;;
61915;SDS011;47868;51.326;6.550;2022-09-27T07:45:19;1.95;;;1.30;;
61915;SDS011;47868;51.326;6.550;2022-09-27T07:47:47;2.92;;;1.40;;
61915;SDS011;47868;51.326;6.550;2022-09-27T07:50:12;3.85;;;1.67;;
61915;SDS011;47868;51.326;6.550;2022-09-27T07:52:42;1.92;;;1.20;;
61915;SDS011;47868;51.326;6.550;2022-09-27T07:55:09;5.95;;;1.40;;
61915;SDS011;47868;51.326;6.550;2022-09-27T07:57:37;1.98;;;0.93;;
61915;SDS011;47868;51.326;6.550;2022-09-27T08:00:04;2.35;;;1.35;;
61915;SDS011;47868;51.326;6.550;2022-09-27T08:02:31;2.72;;;1.33;;
61915;SDS011;47868;51.326;6.550;2022-09-27T08:05:00;3.25;;;1.20;;
61915;SDS011;47868;51.326;6.550;2022-09-27T08:07:27;2.00;;;0.98;;
61915;SDS011;47868;51.326;6.550;2022-09-27T08:09:53;1.83;;;1.00;;
61915;SDS011;47868;51.326;6.550;2022-09-27T08:12:20;5.45;;;1.58;;
61915;SDS011;47868;51.326;6.550;2022-09-27T08:14:49;1.48;;;1.20;;
61915;SDS011;47868;51.326;6.550;2022-09-27T08:17:15;3.38;;;0.95;;
61915;SDS011;47868;51.326;6.550;2022-09-27T08:19:42;1.30;;;1.00;;
61915;SDS011;47868;51.326;6.550;2022-09-27T08:22:09;1.27;;;1.17;;
61915;SDS011;47868;51.326;6.550;2022-09-27T08:24:38;2.28;;;1.30;;
61915;SDS011;47868;51.326;6.550;2022-09-27T08:27:04;3.95;;;1.20;;
61915;SDS011;47868;51.326;6.550;2022-09-27T08:29:32;1.77;;;1.00;;
61915;SDS011;47868;51.326;6.550;2022-09-27T08:31:58;3.00;;;1.10;;
61915;SDS011;47868;51.326;6.550;2022-09-27T08:34:23;5.45;;;1.30;;
61915;SDS011;47868;51.326;6.550;2022-09-27T08:36:49;2.38;;;1.20;;
61915;SDS011;47868;51.326;6.550;2022-09-27T08:39:15;3.40;;;1.30;;
61915;SDS011;47868;51.326;6.550;2022-09-27T08:52:33;1.38;;;1.15;;
61915;SDS011;47868;51.326;6.550;2022-09-27T08:55:26;2.47;;;1.17;;
61915;SDS011;47868;51.326;6.550;2022-09-27T08:57:56;3.72;;;1.50;;
61915;SDS011;47868;51.326;6.550;2022-09-27T09:00:23;4.22;;;1.40;;
61915;SDS011;47868;51.326;6.550;2022-09-27T09:02:51;4.20;;;1.63;;
61915;SDS011;47868;51.326;6.550;2022-09-27T09:05:19;3.65;;;1.40;;
61915;SDS011;47868;51.326;6.550;2022-09-27T09:07:51;3.13;;;1.63;;
61915;SDS011;47868;51.326;6.550;2022-09-27T09:15:54;3.28;;;1.63;;
61915;SDS011;47868;51.326;6.550;2022-09-27T09:24:21;3.47;;;1.90;;
61915;SDS011;47868;51.326;6.550;2022-09-27T09:35:35;3.63;;;2.20;;
61915;SDS011;47868;51.326;6.550;2022-09-27T09:38:09;2.30;;;2.10;;
61915;SDS011;47868;51.326;6.550;2022-09-27T09:40:47;4.78;;;2.42;;
61915;SDS011;47868;51.326;6.550;2022-09-27T09:43:28;3.53;;;2.17;;
61915;SDS011;47868;51.326;6.550;2022-09-27T09:46:20;2.65;;;2.20;;
61915;SDS011;47868;51.326;6.550;2022-09-27T09:49:05;5.43;;;2.35;;
61915;SDS011;47868;51.326;6.550;2022-09-27T09:51:42;4.40;;;2.50;;
61915;SDS011;47868;51.326;6.550;2022-09-27T09:56:46;2.55;;;2.05;;
61915;SDS011;47868;51.326;6.550;2022-09-27T09:59:19;3.13;;;2.00;;
61915;SDS011;47868;51.326;6.550;2022-09-27T10:01:55;1.65;;;1.52;;
61915;SDS011;47868;51.326;6.550;2022-09-27T10:04:25;3.55;;;2.10;;
61915;SDS011;47868;51.326;6.550;2022-09-27T10:06:52;2.63;;;1.73;;
61915;SDS011;47868;51.326;6.550;2022-09-27T10:09:22;3.58;;;1.77;;
61915;SDS011;47868;51.326;6.550;2022-09-27T10:11:50;4.75;;;1.73;;
61915;SDS011;47868;51.326;6.550;2022-09-27T10:14:17;1.65;;;1.45;;
61915;SDS011;47868;51.326;6.550;2022-09-27T10:16:46;2.20;;;1.77;;
61915;SDS011;47868;51.326;6.550;2022-09-27T10:19:18;3.67;;;1.70;;
61915;SDS011;47868;51.326;6.550;2022-09-27T10:21:50;2.30;;;1.70;;
61915;SDS011;47868;51.326;6.550;2022-09-27T10:24:17;2.40;;;1.80;;
61915;SDS011;47868;51.326;6.550;2022-09-27T10:26:44;3.20;;;2.30;;
61915;SDS011;47868;51.326;6.550;2022-09-27T10:31:57;3.67;;;2.85;;
61915;SDS011;47868;51.326;6.550;2022-09-27T10:37:04;2.70;;;2.50;;
61915;SDS011;47868;51.326;6.550;2022-09-27T10:39:36;5.10;;;3.08;;
61915;SDS011;47868;51.326;6.550;2022-09-27T10:42:18;4.80;;;3.63;;
61915;SDS011;47868;51.326;6.550;2022-09-27T10:44:47;5.55;;;3.42;;
61915;SDS011;47868;51.326;6.550;2022-09-27T10:47:13;6.70;;;3.38;;
61915;SDS011;47868;51.326;6.550;2022-09-27T10:49:47;6.68;;;3.88;;
61915;SDS011;47868;51.326;6.550;2022-09-27T10:52:20;5.47;;;3.45;;
61915;SDS011;47868;51.326;6.550;2022-09-27T10:54:55;4.20;;;3.65;;
61915;SDS011;47868;51.326;6.550;2022-09-27T10:57:24;3.72;;;3.40;;
61915;SDS011;47868;51.326;6.550;2022-09-27T10:59:54;4.93;;;3.35;;
61915;SDS011;47868;51.326;6.550;2022-09-27T11:02:34;4.10;;;3.33;;
61915;SDS011;47868;51.326;6.550;2022-09-27T11:07:54;3.78;;;3.03;;
61915;SDS011;47868;51.326;6.550;2022-09-27T11:10:28;4.30;;;3.17;;
61915;SDS011;47868;51.326;6.550;2022-09-27T11:13:17;3.60;;;3.10;;
61915;SDS011;47868;51.326;6.550;2022-09-27T11:18:16;4.22;;;3.03;;
61915;SDS011;47868;51.326;6.550;2022-09-27T11:31:57;3.97;;;3.05;;
61915;SDS011;47868;51.326;6.550;2022-09-27T11:42:29;4.13;;;2.67;;
61915;SDS011;47868;51.326;6.550;2022-09-27T11:45:24;7.05;;;3.08;;
61915;SDS011;47868;51.326;6.550;2022-09-27T11:53:50;4.40;;;2.60;;
61915;SDS011;47868;51.326;6.550;2022-09-27T11:56:30;3.25;;;2.95;;
61915;SDS011;47868;51.326;6.550;2022-09-27T12:02:00;3.58;;;3.03;;
61915;SDS011;47868;51.326;6.550;2022-09-27T12:07:25;3.40;;;3.10;;
61915;SDS011;47868;51.326;6.550;2022-09-27T12:10:04;4.70;;;2.95;;
61915;SDS011;47868;51.326;6.550;2022-09-27T12:12:35;3.22;;;2.47;;
61915;SDS011;47868;51.326;6.550;2022-09-27T12:15:05;2.05;;;1.95;;
61915;SDS011;47868;51.326;6.550;2022-09-27T12:17:44;3.13;;;1.70;;
61915;SDS011;47868;51.326;6.550;2022-09-27T12:25:23;4.10;;;3.60;;
61915;SDS011;47868;51.326;6.550;2022-09-27T12:27:57;2.35;;;2.15;;
61915;SDS011;47868;51.326;6.550;2022-09-27T12:30:39;3.10;;;2.00;;
61915;SDS011;47868;51.326;6.550;2022-09-27T12:35:58;1.30;;;1.30;;
61915;SDS011;47868;51.326;6.550;2022-09-27T12:38:52;1.38;;;0.90;;
61915;SDS011;47868;51.326;6.550;2022-09-27T12:41:21;0.95;;;0.80;;
61915;SDS011;47868;51.326;6.550;2022-09-27T12:43:49;1.15;;;0.70;;
61915;SDS011;47868;51.326;6.550;2022-09-27T12:51:59;0.80;;;0.80;;
61915;SDS011;47868;51.326;6.550;2022-09-27T13:00:11;0.88;;;0.88;;
61915;SDS011;47868;51.326;6.550;2022-09-27T13:13:39;1.95;;;1.80;;
61915;SDS011;47868;51.326;6.550;2022-09-27T13:16:05;1.77;;;0.98;;
61915;SDS011;47868;51.326;6.550;2022-09-27T13:21:05;2.75;;;0.80;;
61915;SDS011;47868;51.326;6.550;2022-09-27T13:26:19;1.33;;;0.80;;
61915;SDS011;47868;51.326;6.550;2022-09-27T13:31:12;0.50;;;0.50;;
61915;SDS011;47868;51.326;6.550;2022-09-27T13:38:52;1.05;;;1.05;;
61915;SDS011;47868;51.326;6.550;2022-09-27T13:44:30;1.92;;;0.75;;
61915;SDS011;47868;51.326;6.550;2022-09-27T13:50:12;4.03;;;0.90;;
61915;SDS011;47868;51.326;6.550;2022-09-27T13:52:41;1.77;;;0.57;;
61915;SDS011;47868;51.326;6.550;2022-09-27T13:58:13;0.65;;;0.55;;
61915;SDS011;47868;51.326;6.550;2022-09-27T14:00:59;0.60;;;0.60;;
61915;SDS011;47868;51.326;6.550;2022-09-27T14:06:17;1.88;;;0.57;;
61915;SDS011;47868;51.326;6.550;2022-09-27T14:08:50;0.65;;;0.65;;
61915;SDS011;47868;51.326;6.550;2022-09-27T14:11:24;2.38;;;0.88;;
61915;SDS011;47868;51.326;6.550;2022-09-27T14:13:53;1.05;;;0.70;;
61915;SDS011;47868;51.326;6.550;2022-09-27T14:16:20;1.80;;;1.08;;
61915;SDS011;47868;51.326;6.550;2022-09-27T14:18:47;1.00;;;0.90;;
61915;SDS011;47868;51.326;6.550;2022-09-27T14:21:36;2.00;;;0.85;;
61915;SDS011;47868;51.326;6.550;2022-09-27T14:27:15;2.92;;;0.80;;
61915;SDS011;47868;51.326;6.550;2022-09-27T14:32:17;0.80;;;0.80;;
61915;SDS011;47868;51.326;6.550;2022-09-27T14:34:45;1.25;;;0.95;;
61915;SDS011;47868;51.326;6.550;2022-09-27T14:37:26;3.60;;;1.15;;
61915;SDS011;47868;51.326;6.550;2022-09-27T14:39:57;3.67;;;1.20;;
61915;SDS011;47868;51.326;6.550;2022-09-27T14:42:29;1.30;;;1.20;;
61915;SDS011;47868;51.326;6.550;2022-09-27T14:45:02;1.83;;;1.10;;
61915;SDS011;47868;51.326;6.550;2022-09-27T14:47:48;2.30;;;1.15;;
61915;SDS011;47868;51.326;6.550;2022-09-27T14:52:52;4.40;;;1.60;;
61915;SDS011;47868;51.326;6.550;2022-09-27T14:55:20;2.80;;;1.48;;
61915;SDS011;47868;51.326;6.550;2022-09-27T14:57:49;2.78;;;1.63;;
61915;SDS011;47868;51.326;6.550;2022-09-27T15:00:18;3.40;;;1.90;;
61915;SDS011;47868;51.326;6.550;2022-09-27T15:02:53;2.65;;;1.70;;
61915;SDS011;47868;51.326;6.550;2022-09-27T15:05:24;1.92;;;1.60;;
61915;SDS011;47868;51.326;6.550;2022-09-27T15:07:52;2.85;;;1.60;;
61915;SDS011;47868;51.326;6.550;2022-09-27T15:10:22;3.15;;;1.52;;
61915;SDS011;47868;51.326;6.550;2022-09-27T15:12:52;3.85;;;1.88;;
61915;SDS011;47868;51.326;6.550;2022-09-27T15:15:24;6.72;;;2.00;;
61915;SDS011;47868;51.326;6.550;2022-09-27T15:18:03;2.20;;;1.73;;
61915;SDS011;47868;51.326;6.550;2022-09-27T15:21:04;5.00;;;2.28;;
61915;SDS011;47868;51.326;6.550;2022-09-27T15:23:39;4.15;;;2.05;;
61915;SDS011;47868;51.326;6.550;2022-09-27T15:26:10;5.03;;;2.05;;
61915;SDS011;47868;51.326;6.550;2022-09-27T15:28:46;3.22;;;2.20;;
61915;SDS011;47868;51.326;6.550;2022-09-27T15:31:16;3.22;;;1.70;;
61915;SDS011;47868;51.326;6.550;2022-09-27T15:33:53;6.32;;;1.77;;
61915;SDS011;47868;51.326;6.550;2022-09-27T15:39:14;2.45;;;1.63;;
61915;SDS011;47868;51.326;6.550;2022-09-27T15:47:03;5.45;;;1.92;;
61915;SDS011;47868;51.326;6.550;2022-09-27T15:49:29;2.92;;;1.98;;
61915;SDS011;47868;51.326;6.550;2022-09-27T15:52:00;2.38;;;2.10;;
61915;SDS011;47868;51.326;6.550;2022-09-27T15:54:29;3.63;;;2.10;;
61915;SDS011;47868;51.326;6.550;2022-09-27T15:57:02;3.03;;;1.92;;
61915;SDS011;47868;51.326;6.550;2022-09-27T15:59:31;1.90;;;1.52;;
61915;SDS011;47868;51.326;6.550;2022-09-27T16:01:59;2.30;;;1.10;;
61915;SDS011;47868;51.326;6.550;2022-09-27T16:04:27;1.50;;;1.40;;
61915;SDS011;47868;51.326;6.550;2022-09-27T16:06:56;1.77;;;1.45;;
61915;SDS011;47868;51.326;6.550;2022-09-27T16:09:24;1.60;;;1.50;;
61915;SDS011;47868;51.326;6.550;2022-09-27T16:11:50;4.32;;;1.30;;
61915;SDS011;47868;51.326;6.550;2022-09-27T16:14:16;4.97;;;1.88;;
61915;SDS011;47868;51.326;6.550;2022-09-27T16:16:43;1.45;;;1.30;;
61915;SDS011;47868;51.326;6.550;2022-09-27T16:19:11;1.95;;;1.20;;
61915;SDS011;47868;51.326;6.550;2022-09-27T16:21:37;4.00;;;1.60;;
61915;SDS011;47868;51.326;6.550;2022-09-27T16:24:03;3.95;;;1.25;;
61915;SDS011;47868;51.326;6.550;2022-09-27T16:26:29;3.92;;;1.45;;
61915;SDS011;47868;51.326;6.550;2022-09-27T16:28:55;3.50;;;1.80;;
61915;SDS011;47868;51.326;6.550;2022-09-27T16:31:20;1.67;;;1.50;;
61915;SDS011;47868;51.326;6.550;2022-09-27T16:33:49;3.50;;;2.05;;
61915;SDS011;47868;51.326;6.550;2022-09-27T16:36:15;2.85;;;1.58;;
61915;SDS011;47868;51.326;6.550;2022-09-27T16:38:47;2.58;;;1.70;;
61915;SDS011;47868;51.326;6.550;2022-09-27T16:41:14;1.98;;;1.52;;
61915;SDS011;47868;51.326;6.550;2022-09-27T16:43:39;5.75;;;2.20;;
61915;SDS011;47868;51.326;6.550;2022-09-27T16:46:06;3.08;;;1.90;;
61915;SDS011;47868;51.326;6.550;2022-09-27T16:48:35;4.20;;;1.90;;
61915;SDS011;47868;51.326;6.550;2022-09-27T16:51:05;12.80;;;8.75;;
61915;SDS011;47868;51.326;6.550;2022-09-27T16:53:53;3.78;;;2.40;;
61915;SDS011;47868;51.326;6.550;2022-09-27T16:56:19;3.70;;;2.75;;
61915;SDS011;47868;51.326;6.550;2022-09-27T16:58:45;7.07;;;5.57;;
61915;SDS011;47868;51.326;6.550;2022-09-27T17:01:11;4.88;;;3.17;;
61915;SDS011;47868;51.326;6.550;2022-09-27T17:03:40;9.18;;;2.22;;
61915;SDS011;47868;51.326;6.550;2022-09-27T17:06:07;3.47;;;2.30;;
61915;SDS011;47868;51.326;6.550;2022-09-27T17:08:32;5.40;;;2.13;;
61915;SDS011;47868;51.326;6.550;2022-09-27T17:10:58;2.97;;;2.13;;
61915;SDS011;47868;51.326;6.550;2022-09-27T17:13:24;4.78;;;2.28;;
61915;SDS011;47868;51.326;6.550;2022-09-27T17:15:51;4.57;;;2.60;;
61915;SDS011;47868;51.326;6.550;2022-09-27T17:18:17;3.60;;;2.13;;
61915;SDS011;47868;51.326;6.550;2022-09-27T17:20:42;4.57;;;2.58;;
61915;SDS011;47868;51.326;6.550;2022-09-27T17:23:08;4.88;;;2.33;;
61915;SDS011;47868;51.326;6.550;2022-09-27T17:25:34;4.13;;;2.15;;
61915;SDS011;47868;51.326;6.550;2022-09-27T17:28:00;2.92;;;2.33;;
61915;SDS011;47868;51.326;6.550;2022-09-27T17:30:25;4.63;;;2.40;;
61915;SDS011;47868;51.326;6.550;2022-09-27T17:32:51;2.78;;;2.58;;
61915;SDS011;47868;51.326;6.550;2022-09-27T17:35:17;6.38;;;4.00;;
61915;SDS011;47868;51.326;6.550;2022-09-27T17:37:42;3.33;;;2.80;;
61915;SDS011;47868;51.326;6.550;2022-09-27T17:40:09;3.65;;;2.83;;
61915;SDS011;47868;51.326;6.550;2022-09-27T17:42:34;7.25;;;3.95;;
61915;SDS011;47868;51.326;6.550;2022-09-27T17:45:01;4.65;;;3.38;;
61915;SDS011;47868;51.326;6.550;2022-09-27T17:47:27;4.28;;;2.90;;
61915;SDS011;47868;51.326;6.550;2022-09-27T17:50:11;5.28;;;2.95;;
61915;SDS011;47868;51.326;6.550;2022-09-27T17:52:49;6.80;;;2.97;;
61915;SDS011;47868;51.326;6.550;2022-09-27T17:55:15;7.50;;;3.30;;
61915;SDS011;47868;51.326;6.550;2022-09-27T17:57:42;5.13;;;2.80;;
61915;SDS011;47868;51.326;6.550;2022-09-27T18:00:10;5.10;;;2.75;;
61915;SDS011;47868;51.326;6.550;2022-09-27T18:02:36;3.97;;;2.83;;
61915;SDS011;47868;51.326;6.550;2022-09-27T18:05:02;6.28;;;5.38;;
61915;SDS011;47868;51.326;6.550;2022-09-27T18:07:27;6.90;;;4.40;;
61915;SDS011;47868;51.326;6.550;2022-09-27T18:09:53;6.60;;;3.53;;
61915;SDS011;47868;51.326;6.550;2022-09-27T18:12:19;4.38;;;3.60;;
61915;SDS011;47868;51.326;6.550;2022-09-27T18:14:45;7.25;;;3.97;;